createdAt,value
2022-12-18T00:02:39.207Z,4.07
2022-12-18T00:05:48.763Z,3.10
2022-12-18T00:08:50.064Z,2.63
2022-12-18T00:11:51.443Z,4.07
2022-12-18T00:14:52.727Z,4.32
2022-12-18T00:17:54.005Z,2.70
2022-12-18T00:20:59.004Z,4.15
2022-12-18T00:24:00.570Z,3.75
2022-12-18T00:27:01.889Z,2.72
2022-12-18T00:30:03.529Z,4.05
2022-12-18T00:33:04.816Z,3.70
2022-12-18T00:36:07.465Z,5.22
2022-12-18T00:39:09.213Z,4.30
2022-12-18T00:42:29.977Z,2.95
2022-12-18T00:45:31.764Z,3.72
2022-12-18T00:48:33.605Z,2.97
2022-12-18T00:51:34.909Z,2.85
2022-12-18T00:54:36.195Z,4.07
2022-12-18T00:57:37.517Z,2.63
2022-12-18T01:00:39.170Z,3.83
2022-12-18T01:03:41.139Z,2.03
2022-12-18T01:06:42.967Z,2.78
2022-12-18T01:09:44.245Z,4.80
2022-12-18T01:12:45.958Z,2.78
2022-12-18T01:15:50.512Z,3.20
2022-12-18T01:18:52.872Z,4.90
2022-12-18T01:21:54.154Z,2.17
2022-12-18T01:24:55.553Z,4.25
2022-12-18T01:27:56.831Z,3.78
2022-12-18T01:30:58.277Z,2.95
2022-12-18T01:34:02.535Z,4.10
2022-12-18T01:37:04.442Z,4.90
2022-12-18T01:40:06.213Z,2.03
2022-12-18T01:43:09.988Z,3.10
2022-12-18T01:46:11.335Z,3.40
2022-12-18T01:49:12.607Z,1.92
2022-12-18T01:52:14.674Z,2.60
2022-12-18T01:55:17.214Z,3.45
2022-12-18T01:58:19.302Z,2.65
2022-12-18T02:01:22.485Z,1.65
2022-12-18T02:04:25.000Z,4.18
2022-12-18T02:07:32.578Z,2.25
2022-12-18T02:10:43.080Z,2.65
2022-12-18T02:13:52.610Z,4.15
2022-12-18T02:17:00.679Z,2.60
2022-12-18T02:20:09.105Z,2.30
2022-12-18T02:23:19.441Z,2.17
2022-12-18T02:26:38.953Z,2.08
2022-12-18T02:29:43.950Z,1.75
2022-12-18T02:32:47.095Z,2.88
2022-12-18T02:35:49.288Z,2.33
2022-12-18T02:38:51.756Z,2.35
2022-12-18T02:41:53.301Z,2.55
2022-12-18T02:44:57.340Z,1.70
2022-12-18T02:47:58.700Z,1.80
2022-12-18T02:51:13.714Z,2.17
2022-12-18T02:54:29.715Z,2.20
2022-12-18T02:57:57.309Z,2.58
2022-12-18T03:01:16.060Z,2.45
2022-12-18T03:04:19.266Z,3.67
2022-12-18T03:07:24.432Z,2.50
2022-12-18T03:10:28.678Z,3.67
2022-12-18T03:13:38.128Z,3.28
2022-12-18T03:16:41.048Z,2.42
2022-12-18T03:19:43.527Z,3.95
2022-12-18T03:22:46.322Z,2.95
2022-12-18T03:25:49.417Z,3.22
2022-12-18T03:28:52.349Z,2.60
2022-12-18T03:32:00.060Z,3.85
2022-12-18T03:35:03.610Z,3.75
2022-12-18T03:38:04.975Z,2.72
2022-12-18T03:41:11.740Z,2.50
2022-12-18T03:44:21.108Z,3.22
2022-12-18T03:47:25.197Z,2.28
2022-12-18T03:50:35.376Z,2.30
2022-12-18T03:53:45.922Z,3.03
2022-12-18T03:56:49.374Z,2.83
2022-12-18T03:59:52.697Z,4.57
2022-12-18T04:02:55.153Z,3.53
2022-12-18T04:05:56.566Z,3.70
2022-12-18T04:08:59.418Z,3.22
2022-12-18T04:12:00.675Z,2.65
2022-12-18T04:15:01.942Z,2.42
2022-12-18T04:18:03.455Z,2.80
2022-12-18T04:21:04.844Z,5.18
2022-12-18T04:24:06.226Z,2.85
2022-12-18T04:27:07.907Z,2.97
2022-12-18T04:30:09.335Z,3.03
2022-12-18T04:33:11.349Z,1.88
2022-12-18T04:36:13.382Z,3.08
2022-12-18T04:39:15.036Z,3.60
2022-12-18T04:42:16.243Z,3.15
2022-12-18T04:45:17.534Z,2.78
2022-12-18T04:48:18.893Z,4.55
2022-12-18T04:51:26.187Z,3.05
2022-12-18T04:54:28.008Z,3.13
2022-12-18T04:57:29.287Z,4.18
2022-12-18T05:00:30.565Z,1.52
2022-12-18T05:03:31.852Z,2.92
2022-12-18T05:06:33.207Z,3.13
2022-12-18T05:09:34.486Z,2.13
2022-12-18T05:12:55.729Z,2.95
2022-12-18T05:15:57.432Z,2.53
2022-12-18T05:18:58.733Z,2.00
2022-12-18T05:22:00.055Z,2.65
2022-12-18T05:25:01.284Z,2.60
2022-12-18T05:28:02.610Z,2.70
2022-12-18T05:31:04.656Z,3.60
2022-12-18T05:34:06.250Z,3.75
2022-12-18T05:37:07.566Z,2.35
2022-12-18T05:40:09.079Z,2.10
2022-12-18T05:43:10.857Z,3.70
2022-12-18T05:46:14.306Z,3.45
2022-12-18T05:49:15.663Z,3.25
2022-12-18T05:52:16.911Z,3.72
2022-12-18T05:55:18.149Z,2.88
2022-12-18T05:58:19.403Z,3.65
2022-12-18T06:01:22.300Z,3.33
2022-12-18T06:04:23.585Z,2.80
2022-12-18T06:07:25.057Z,2.13
2022-12-18T06:10:26.341Z,4.47
2022-12-18T06:13:27.727Z,2.92
2022-12-18T06:16:29.490Z,2.47
2022-12-18T06:19:30.930Z,3.25
2022-12-18T06:22:33.048Z,4.70
2022-12-18T06:25:34.326Z,3.53
2022-12-18T06:28:35.998Z,3.72
2022-12-18T06:31:37.348Z,3.45
2022-12-18T06:34:38.861Z,3.85
2022-12-18T06:37:40.133Z,2.20
2022-12-18T06:40:41.417Z,2.88
2022-12-18T06:43:43.228Z,2.70
2022-12-18T06:46:44.736Z,3.97
2022-12-18T06:49:46.043Z,2.80
2022-12-18T06:52:47.353Z,3.13
2022-12-18T06:55:48.650Z,3.17
2022-12-18T06:58:52.950Z,3.28
2022-12-18T07:01:54.438Z,2.20
2022-12-18T07:04:55.898Z,2.88
2022-12-18T07:07:57.160Z,2.58
2022-12-18T07:10:58.767Z,4.88
2022-12-18T07:14:00.312Z,3.00
2022-12-18T07:17:01.713Z,2.75
2022-12-18T07:20:03.146Z,3.15
2022-12-18T07:23:06.076Z,5.30
2022-12-18T07:26:08.931Z,2.85
2022-12-18T07:29:10.270Z,3.13
2022-12-18T07:32:11.596Z,2.78
2022-12-18T07:35:13.998Z,3.17
2022-12-18T07:38:15.425Z,2.33
2022-12-18T07:41:17.306Z,3.20
2022-12-18T07:44:18.587Z,3.55
2022-12-18T07:47:20.955Z,4.90
2022-12-18T07:50:22.333Z,2.88
2022-12-18T07:53:23.572Z,3.15
2022-12-18T07:56:29.384Z,3.47
2022-12-18T07:59:31.689Z,2.05
2022-12-18T08:02:33.029Z,3.90
2022-12-18T08:05:34.378Z,1.95
2022-12-18T08:08:36.243Z,4.85
2022-12-18T08:11:37.535Z,5.03
2022-12-18T08:14:38.807Z,3.75
2022-12-18T08:17:40.392Z,3.28
2022-12-18T08:20:44.359Z,5.32
2022-12-18T08:23:46.134Z,3.33
2022-12-18T08:27:06.809Z,4.55
2022-12-18T08:30:09.410Z,3.97
2022-12-18T08:33:10.657Z,3.97
2022-12-18T08:36:12.255Z,2.35
2022-12-18T08:39:13.595Z,3.03
2022-12-18T08:42:33.734Z,2.80
2022-12-18T08:45:35.107Z,3.40
2022-12-18T08:48:36.755Z,3.08
2022-12-18T08:51:38.389Z,4.38
2022-12-18T08:54:39.683Z,4.85
2022-12-18T08:57:40.972Z,5.50
2022-12-18T09:00:42.290Z,2.47
2022-12-18T09:03:44.144Z,3.53
2022-12-18T09:06:45.948Z,6.38
2022-12-18T09:09:47.222Z,4.53
2022-12-18T09:12:48.475Z,5.10
2022-12-18T09:15:52.318Z,3.25
2022-12-18T09:19:00.080Z,4.10
2022-12-18T09:22:01.547Z,4.32
2022-12-18T09:25:02.925Z,4.40
2022-12-18T09:28:05.252Z,4.20
2022-12-18T09:31:08.381Z,5.72
2022-12-18T09:34:09.797Z,3.90
2022-12-18T09:37:11.068Z,5.45
2022-12-18T09:40:20.177Z,4.95
2022-12-18T09:43:25.445Z,4.35
2022-12-18T09:46:38.495Z,5.50
2022-12-18T09:49:42.812Z,4.88
2022-12-18T09:52:46.142Z,3.58
2022-12-18T09:55:48.674Z,3.25
2022-12-18T09:59:12.902Z,3.40
2022-12-18T10:02:19.197Z,3.40
2022-12-18T10:05:25.620Z,3.28
2022-12-18T10:08:45.250Z,6.03
2022-12-18T10:12:10.072Z,4.90
2022-12-18T10:15:14.156Z,4.72
2022-12-18T10:18:34.319Z,5.20
2022-12-18T10:21:51.684Z,6.90
2022-12-18T10:25:19.602Z,6.03
2022-12-18T10:28:21.428Z,5.93
2022-12-18T10:31:24.701Z,7.03
2022-12-18T10:34:26.280Z,7.20
2022-12-18T10:37:29.235Z,5.28
2022-12-18T10:40:30.571Z,5.90
2022-12-18T10:43:36.365Z,6.28
2022-12-18T10:46:37.924Z,4.63
2022-12-18T10:49:43.020Z,6.28
2022-12-18T10:52:48.179Z,5.38
2022-12-18T10:55:49.815Z,6.43
2022-12-18T10:58:58.666Z,5.63
2022-12-18T11:02:00.073Z,6.75
2022-12-18T11:05:01.876Z,3.92
2022-12-18T11:08:03.669Z,5.15
2022-12-18T11:11:07.608Z,5.65
2022-12-18T11:14:17.602Z,4.90
2022-12-18T11:17:26.100Z,4.47
2022-12-18T11:20:32.599Z,5.07
2022-12-18T11:23:34.439Z,6.65
2022-12-18T11:26:36.736Z,7.25
2022-12-18T11:29:44.831Z,4.53
2022-12-18T11:32:49.120Z,4.82
2022-12-18T11:35:51.664Z,6.75
2022-12-18T11:38:54.255Z,4.53
2022-12-18T11:42:13.890Z,6.63
2022-12-18T11:45:15.168Z,5.50
2022-12-18T11:48:22.960Z,6.88
2022-12-18T11:51:29.163Z,6.97
2022-12-18T11:54:30.440Z,5.93
2022-12-18T11:57:58.937Z,5.38
2022-12-18T12:01:19.060Z,7.47
2022-12-18T12:04:23.570Z,5.82
2022-12-18T12:07:29.605Z,8.00
2022-12-18T12:10:40.976Z,6.30
2022-12-18T12:13:44.972Z,5.93
2022-12-18T12:16:56.392Z,6.35
2022-12-18T12:20:16.748Z,9.82
2022-12-18T12:23:27.845Z,3.67
2022-12-18T12:26:42.400Z,6.72
2022-12-18T12:29:43.658Z,5.40
2022-12-18T12:33:03.101Z,6.07
2022-12-18T12:36:04.319Z,6.07
2022-12-18T12:39:11.017Z,6.40
2022-12-18T12:42:50.537Z,6.10
2022-12-18T12:45:54.350Z,6.75
2022-12-18T12:48:57.529Z,7.85
2022-12-18T12:52:04.279Z,8.55
2022-12-18T12:55:14.741Z,5.03
2022-12-18T12:58:20.865Z,7.78
2022-12-18T13:01:24.189Z,9.30
2022-12-18T13:04:34.307Z,5.47
2022-12-18T13:07:42.413Z,6.60
2022-12-18T13:10:43.889Z,6.25
2022-12-18T13:13:52.879Z,6.88
2022-12-18T13:17:14.165Z,4.30
2022-12-18T13:20:17.258Z,6.65
2022-12-18T13:23:24.765Z,5.00
2022-12-18T13:26:28.651Z,5.68
2022-12-18T13:29:45.037Z,4.00
2022-12-18T13:32:46.371Z,6.72
2022-12-18T13:35:48.203Z,5.68
2022-12-18T13:39:09.482Z,6.53
2022-12-18T13:42:30.732Z,5.20
2022-12-18T13:45:39.747Z,6.95
2022-12-18T13:48:49.683Z,4.43
2022-12-18T13:51:54.380Z,5.47
2022-12-18T13:55:00.310Z,4.18
2022-12-18T13:58:05.725Z,5.20
2022-12-18T14:01:22.059Z,5.65
2022-12-18T14:04:34.414Z,4.78
2022-12-18T14:07:41.852Z,4.05
2022-12-18T14:10:49.167Z,4.18
2022-12-18T14:13:51.127Z,4.85
2022-12-18T14:16:53.253Z,3.38
2022-12-18T14:19:55.237Z,4.68
2022-12-18T14:22:56.769Z,5.45
2022-12-18T14:26:03.617Z,5.25
2022-12-18T14:29:36.025Z,5.18
2022-12-18T14:32:37.336Z,4.82
2022-12-18T14:35:40.368Z,8.07
2022-12-18T14:38:41.615Z,4.00
2022-12-18T14:41:42.896Z,4.00
2022-12-18T14:45:12.342Z,5.32
2022-12-18T14:48:28.436Z,5.15
2022-12-18T14:51:31.654Z,3.33
2022-12-18T14:54:33.381Z,4.50
2022-12-18T14:57:37.158Z,4.03
2022-12-18T15:00:42.093Z,4.75
2022-12-18T15:03:45.029Z,5.38
2022-12-18T15:06:46.476Z,5.00
2022-12-18T15:10:06.635Z,4.43
2022-12-18T15:13:09.992Z,5.72
2022-12-18T15:16:12.805Z,6.00
2022-12-18T15:19:17.284Z,6.85
2022-12-18T15:22:18.512Z,4.35
2022-12-18T15:25:32.731Z,7.43
2022-12-18T15:28:38.963Z,6.78
2022-12-18T15:31:41.756Z,7.35
2022-12-18T15:34:42.976Z,5.95
2022-12-18T15:37:44.925Z,5.72
2022-12-18T15:40:46.235Z,4.63
2022-12-18T15:43:48.436Z,6.28
2022-12-18T15:46:49.740Z,6.88
2022-12-18T15:49:51.023Z,5.45
2022-12-18T15:52:53.326Z,5.82
2022-12-18T15:56:13.038Z,3.55
2022-12-18T15:59:15.284Z,5.50
2022-12-18T16:02:17.862Z,4.38
2022-12-18T16:05:25.549Z,5.18
2022-12-18T16:08:26.792Z,5.13
2022-12-18T16:11:44.394Z,5.47
2022-12-18T16:14:46.025Z,4.40
2022-12-18T16:17:47.733Z,6.72
2022-12-18T16:20:49.012Z,7.25
2022-12-18T16:23:50.250Z,4.55
2022-12-18T16:26:55.088Z,5.50
2022-12-18T16:29:56.472Z,6.07
2022-12-18T16:32:58.383Z,5.65
2022-12-18T16:35:59.655Z,7.70
2022-12-18T16:39:00.931Z,7.65
2022-12-18T16:42:06.998Z,6.30
2022-12-18T16:45:14.881Z,5.70
2022-12-18T16:48:16.228Z,7.45
2022-12-18T16:51:17.578Z,4.47
2022-12-18T16:54:19.970Z,6.53
2022-12-18T16:57:21.599Z,5.32
2022-12-18T17:00:26.753Z,6.50
2022-12-18T17:03:28.053Z,3.40
2022-12-18T17:06:30.736Z,5.88
2022-12-18T17:09:32.031Z,3.58
2022-12-18T17:12:33.304Z,4.40
2022-12-18T17:15:35.260Z,4.65
2022-12-18T17:18:36.569Z,3.42
2022-12-18T17:21:38.008Z,6.35
2022-12-18T17:24:39.941Z,5.18
2022-12-18T17:27:41.236Z,6.10
2022-12-18T17:30:42.540Z,5.13
2022-12-18T17:33:44.284Z,4.63
2022-12-18T17:36:45.687Z,3.90
2022-12-18T17:39:46.963Z,4.93
2022-12-18T17:42:48.248Z,5.07
2022-12-18T17:45:49.535Z,4.15
2022-12-18T17:48:50.805Z,5.68
2022-12-18T17:51:52.102Z,2.95
2022-12-18T17:54:53.347Z,5.15
2022-12-18T17:57:55.034Z,4.25
2022-12-18T18:00:59.100Z,4.93
2022-12-18T18:04:01.992Z,2.22
2022-12-18T18:07:03.432Z,4.00
2022-12-18T18:10:05.260Z,5.15
2022-12-18T18:13:47.078Z,4.40
2022-12-18T18:16:49.723Z,2.67
2022-12-18T18:19:51.059Z,5.45
2022-12-18T18:22:52.325Z,4.20
2022-12-18T18:25:53.748Z,4.00
2022-12-18T18:28:55.608Z,4.43
2022-12-18T18:31:57.136Z,2.88
2022-12-18T18:34:58.516Z,4.20
2022-12-18T18:37:59.769Z,5.18
2022-12-18T18:41:02.460Z,4.85
2022-12-18T18:44:04.300Z,5.15
2022-12-18T18:47:07.662Z,6.00
2022-12-18T18:50:12.879Z,4.53
2022-12-18T18:53:14.146Z,3.80
2022-12-18T18:56:45.498Z,4.10
2022-12-18T18:59:38.534Z,6.93
2022-12-18T19:02:39.945Z,6.00
2022-12-18T19:05:44.449Z,7.32
2022-12-18T19:08:48.977Z,6.43
2022-12-18T19:12:09.248Z,7.10
2022-12-18T19:15:10.616Z,7.88
2022-12-18T19:18:15.058Z,6.20
2022-12-18T19:21:16.649Z,8.82
2022-12-18T19:24:17.923Z,8.57
2022-12-18T19:27:19.199Z,10.63
2022-12-18T19:30:20.486Z,5.35
2022-12-18T19:36:43.767Z,7.97
2022-12-18T19:39:45.568Z,8.38
2022-12-18T19:42:46.880Z,6.78
2022-12-18T19:45:54.211Z,8.73
2022-12-18T19:48:55.572Z,9.60
2022-12-18T19:51:56.992Z,9.60
2022-12-18T19:54:58.295Z,7.85
2022-12-18T19:57:59.595Z,7.75
2022-12-18T20:01:01.033Z,8.18
2022-12-18T20:04:03.920Z,9.75
2022-12-18T20:07:05.741Z,8.00
2022-12-18T20:10:09.264Z,8.10
2022-12-18T20:13:11.207Z,8.73
2022-12-18T20:16:12.803Z,9.63
2022-12-18T20:19:14.546Z,7.32
2022-12-18T20:22:17.136Z,7.18
2022-12-18T20:25:18.461Z,8.77
2022-12-18T20:28:20.190Z,9.70
2022-12-18T20:31:21.712Z,9.18
2022-12-18T20:34:23.063Z,7.43
2022-12-18T20:37:25.400Z,7.80
2022-12-18T20:40:28.483Z,9.57
2022-12-18T20:43:30.035Z,8.23
2022-12-18T20:46:31.355Z,9.45
2022-12-18T20:49:32.658Z,8.65
2022-12-18T20:52:33.941Z,8.48
2022-12-18T20:55:35.243Z,8.38
2022-12-18T20:58:36.663Z,7.20
2022-12-18T21:01:38.981Z,6.07
2022-12-18T21:04:42.835Z,7.57
2022-12-18T21:07:44.165Z,7.05
2022-12-18T21:10:45.454Z,5.88
2022-12-18T21:13:46.738Z,5.15
2022-12-18T21:16:48.388Z,9.32
2022-12-18T21:19:49.728Z,5.15
2022-12-18T21:22:51.457Z,5.75
2022-12-18T21:25:55.923Z,4.90
2022-12-18T21:29:01.588Z,6.38
2022-12-18T21:35:04.291Z,4.75
2022-12-18T21:38:05.874Z,8.10
2022-12-18T21:41:08.069Z,5.93
2022-12-18T21:44:11.373Z,6.35
2022-12-18T21:47:22.111Z,7.63
2022-12-18T21:50:24.442Z,7.80
2022-12-18T21:53:25.894Z,7.28
2022-12-18T21:56:46.140Z,7.45
2022-12-18T21:59:48.478Z,6.25
2022-12-18T22:03:03.415Z,7.07
2022-12-18T22:06:11.930Z,6.32
2022-12-18T22:09:14.932Z,5.07
2022-12-18T22:12:35.205Z,7.68
2022-12-18T22:15:36.905Z,6.78
2022-12-18T22:18:38.223Z,7.70
2022-12-18T22:21:41.056Z,5.57
2022-12-18T22:24:42.304Z,5.00
2022-12-18T22:28:04.104Z,9.43
2022-12-18T22:31:05.487Z,5.55
2022-12-18T22:34:06.933Z,5.13
2022-12-18T22:37:09.636Z,5.68
2022-12-18T22:40:23.543Z,6.22
2022-12-18T22:43:25.526Z,8.55
2022-12-18T22:46:27.627Z,7.18
2022-12-18T22:49:28.999Z,6.50
2022-12-18T22:52:30.297Z,5.93
2022-12-18T22:55:31.528Z,8.32
2022-12-18T22:58:32.765Z,6.10
2022-12-18T23:01:34.277Z,7.80
2022-12-18T23:04:37.135Z,7.07
2022-12-18T23:07:38.368Z,7.55
2022-12-18T23:10:39.768Z,7.90
2022-12-18T23:13:41.412Z,8.25
2022-12-18T23:16:42.715Z,6.85
2022-12-18T23:19:49.279Z,9.40
2022-12-18T23:22:50.846Z,5.72
2022-12-18T23:25:59.515Z,5.47
2022-12-18T23:29:01.366Z,6.95
2022-12-18T23:32:03.031Z,5.80
2022-12-18T23:35:04.503Z,5.32
2022-12-18T23:38:07.011Z,6.10
2022-12-18T23:41:13.510Z,6.22
2022-12-18T23:44:14.809Z,6.47
2022-12-18T23:47:16.101Z,6.93
2022-12-18T23:50:17.395Z,6.57
2022-12-18T23:53:18.677Z,7.57
2022-12-18T23:56:20.271Z,6.20
2022-12-18T23:59:25.448Z,6.47
